sensor_id;sensor_type;location;lat;lon;timestamp;P1;durP1;ratioP1;P2;durP2;ratioP2
2129;SDS011;1071;52.544;13.374;2024-03-06T00:00:41;17.90;;;14.15;;
2129;SDS011;1071;52.544;13.374;2024-03-06T00:03:08;19.40;;;16.15;;
2129;SDS011;1071;52.544;13.374;2024-03-06T00:05:36;19.50;;;16.52;;
2129;SDS011;1071;52.544;13.374;2024-03-06T00:08:03;19.98;;;15.57;;
2129;SDS011;1071;52.544;13.374;2024-03-06T00:10:31;18.88;;;15.50;;
2129;SDS011;1071;52.544;13.374;2024-03-06T00:12:58;18.75;;;15.10;;
2129;SDS011;1071;52.544;13.374;2024-03-06T00:15:27;18.08;;;15.50;;
2129;SDS011;1071;52.544;13.374;2024-03-06T00:18:12;19.13;;;16.27;;
2129;SDS011;1071;52.544;13.374;2024-03-06T00:20:40;20.10;;;16.88;;
2129;SDS011;1071;52.544;13.374;2024-03-06T00:23:08;19.02;;;16.33;;
2129;SDS011;1071;52.544;13.374;2024-03-06T00:25:39;21.33;;;16.45;;
2129;SDS011;1071;52.544;13.374;2024-03-06T00:28:06;20.20;;;15.80;;
2129;SDS011;1071;52.544;13.374;2024-03-06T00:30:33;18.85;;;14.85;;
2129;SDS011;1071;52.544;13.374;2024-03-06T00:33:00;21.95;;;17.30;;
2129;SDS011;1071;52.544;13.374;2024-03-06T00:35:27;19.98;;;16.40;;
2129;SDS011;1071;52.544;13.374;2024-03-06T00:37:58;18.20;;;16.23;;
2129;SDS011;1071;52.544;13.374;2024-03-06T00:40:27;17.50;;;15.60;;
2129;SDS011;1071;52.544;13.374;2024-03-06T00:42:55;17.63;;;15.68;;
2129;SDS011;1071;52.544;13.374;2024-03-06T00:45:23;18.90;;;16.90;;
2129;SDS011;1071;52.544;13.374;2024-03-06T00:47:53;17.55;;;14.90;;
2129;SDS011;1071;52.544;13.374;2024-03-06T00:50:31;18.77;;;16.75;;
2129;SDS011;1071;52.544;13.374;2024-03-06T00:52:59;19.50;;;16.95;;
2129;SDS011;1071;52.544;13.374;2024-03-06T00:55:26;17.90;;;15.80;;
2129;SDS011;1071;52.544;13.374;2024-03-06T00:57:56;21.08;;;17.77;;
2129;SDS011;1071;52.544;13.374;2024-03-06T01:00:24;24.33;;;16.77;;
2129;SDS011;1071;52.544;13.374;2024-03-06T01:02:53;20.80;;;16.73;;
2129;SDS011;1071;52.544;13.374;2024-03-06T01:05:21;17.42;;;15.38;;
2129;SDS011;1071;52.544;13.374;2024-03-06T01:07:49;17.13;;;15.15;;
2129;SDS011;1071;52.544;13.374;2024-03-06T01:10:21;19.13;;;16.55;;
2129;SDS011;1071;52.544;13.374;2024-03-06T01:12:49;18.10;;;15.98;;
2129;SDS011;1071;52.544;13.374;2024-03-06T01:15:19;19.42;;;16.17;;
2129;SDS011;1071;52.544;13.374;2024-03-06T01:17:47;19.05;;;15.82;;
2129;SDS011;1071;52.544;13.374;2024-03-06T01:20:15;17.95;;;16.05;;
2129;SDS011;1071;52.544;13.374;2024-03-06T01:22:43;21.45;;;14.70;;
2129;SDS011;1071;52.544;13.374;2024-03-06T01:25:14;16.80;;;15.00;;
2129;SDS011;1071;52.544;13.374;2024-03-06T01:27:43;26.20;;;16.35;;
2129;SDS011;1071;52.544;13.374;2024-03-06T01:30:11;16.35;;;14.75;;
2129;SDS011;1071;52.544;13.374;2024-03-06T01:32:42;17.02;;;15.23;;
2129;SDS011;1071;52.544;13.374;2024-03-06T01:35:10;18.58;;;15.50;;
2129;SDS011;1071;52.544;13.374;2024-03-06T01:37:38;18.15;;;14.50;;
2129;SDS011;1071;52.544;13.374;2024-03-06T01:40:07;18.15;;;14.93;;
2129;SDS011;1071;52.544;13.374;2024-03-06T01:42:36;20.38;;;16.60;;
2129;SDS011;1071;52.544;13.374;2024-03-06T01:45:08;15.65;;;14.05;;
2129;SDS011;1071;52.544;13.374;2024-03-06T01:47:43;16.48;;;14.73;;
2129;SDS011;1071;52.544;13.374;2024-03-06T01:50:12;14.82;;;13.35;;
2129;SDS011;1071;52.544;13.374;2024-03-06T01:52:41;16.23;;;14.57;;
2129;SDS011;1071;52.544;13.374;2024-03-06T01:55:11;16.45;;;14.85;;
2129;SDS011;1071;52.544;13.374;2024-03-06T01:57:44;19.38;;;14.90;;
2129;SDS011;1071;52.544;13.374;2024-03-06T02:00:21;19.45;;;14.65;;
2129;SDS011;1071;52.544;13.374;2024-03-06T02:02:54;15.90;;;13.75;;
2129;SDS011;1071;52.544;13.374;2024-03-06T02:05:22;15.82;;;14.07;;
2129;SDS011;1071;52.544;13.374;2024-03-06T02:07:51;16.92;;;15.15;;
2129;SDS011;1071;52.544;13.374;2024-03-06T02:10:21;16.33;;;14.73;;
2129;SDS011;1071;52.544;13.374;2024-03-06T02:12:51;16.30;;;14.60;;
2129;SDS011;1071;52.544;13.374;2024-03-06T02:15:21;17.52;;;15.32;;
2129;SDS011;1071;52.544;13.374;2024-03-06T02:17:49;18.60;;;14.82;;
2129;SDS011;1071;52.544;13.374;2024-03-06T02:20:22;17.63;;;15.02;;
2129;SDS011;1071;52.544;13.374;2024-03-06T02:22:50;18.77;;;15.80;;
2129;SDS011;1071;52.544;13.374;2024-03-06T02:25:17;19.00;;;15.23;;
2129;SDS011;1071;52.544;13.374;2024-03-06T02:27:45;15.35;;;13.85;;
2129;SDS011;1071;52.544;13.374;2024-03-06T02:30:14;19.60;;;14.43;;
2129;SDS011;1071;52.544;13.374;2024-03-06T02:32:41;16.35;;;13.40;;
2129;SDS011;1071;52.544;13.374;2024-03-06T02:35:09;17.30;;;15.60;;
2129;SDS011;1071;52.544;13.374;2024-03-06T02:37:37;16.55;;;14.65;;
2129;SDS011;1071;52.544;13.374;2024-03-06T02:40:05;16.17;;;13.65;;
2129;SDS011;1071;52.544;13.374;2024-03-06T02:42:35;19.75;;;16.02;;
2129;SDS011;1071;52.544;13.374;2024-03-06T02:45:04;15.65;;;13.98;;
2129;SDS011;1071;52.544;13.374;2024-03-06T02:47:34;16.45;;;14.68;;
2129;SDS011;1071;52.544;13.374;2024-03-06T02:50:04;20.55;;;15.90;;
2129;SDS011;1071;52.544;13.374;2024-03-06T02:52:32;19.48;;;14.20;;
2129;SDS011;1071;52.544;13.374;2024-03-06T02:55:01;17.35;;;15.55;;
2129;SDS011;1071;52.544;13.374;2024-03-06T02:57:28;18.38;;;14.80;;
2129;SDS011;1071;52.544;13.374;2024-03-06T02:59:55;16.70;;;14.95;;
2129;SDS011;1071;52.544;13.374;2024-03-06T03:02:23;17.13;;;15.32;;
2129;SDS011;1071;52.544;13.374;2024-03-06T03:04:51;18.73;;;15.20;;
2129;SDS011;1071;52.544;13.374;2024-03-06T03:07:18;16.67;;;14.88;;
2129;SDS011;1071;52.544;13.374;2024-03-06T03:09:46;17.25;;;15.35;;
2129;SDS011;1071;52.544;13.374;2024-03-06T03:12:14;15.75;;;14.15;;
2129;SDS011;1071;52.544;13.374;2024-03-06T03:14:42;17.35;;;15.55;;
2129;SDS011;1071;52.544;13.374;2024-03-06T03:17:09;16.38;;;14.50;;
2129;SDS011;1071;52.544;13.374;2024-03-06T03:19:40;20.63;;;15.80;;
2129;SDS011;1071;52.544;13.374;2024-03-06T03:22:07;16.50;;;14.77;;
2129;SDS011;1071;52.544;13.374;2024-03-06T03:24:35;19.58;;;15.95;;
2129;SDS011;1071;52.544;13.374;2024-03-06T03:27:02;18.50;;;16.60;;
2129;SDS011;1071;52.544;13.374;2024-03-06T03:29:31;17.00;;;15.25;;
2129;SDS011;1071;52.544;13.374;2024-03-06T03:31:58;18.02;;;16.20;;
2129;SDS011;1071;52.544;13.374;2024-03-06T03:34:25;18.40;;;14.38;;
2129;SDS011;1071;52.544;13.374;2024-03-06T03:36:52;17.27;;;15.45;;
2129;SDS011;1071;52.544;13.374;2024-03-06T03:39:19;16.90;;;15.10;;
2129;SDS011;1071;52.544;13.374;2024-03-06T03:41:49;16.58;;;14.82;;
2129;SDS011;1071;52.544;13.374;2024-03-06T03:44:17;15.45;;;13.75;;
2129;SDS011;1071;52.544;13.374;2024-03-06T03:46:46;15.57;;;13.63;;
2129;SDS011;1071;52.544;13.374;2024-03-06T03:49:13;14.68;;;13.15;;
2129;SDS011;1071;52.544;13.374;2024-03-06T03:51:41;17.15;;;14.32;;
2129;SDS011;1071;52.544;13.374;2024-03-06T03:54:08;16.67;;;14.88;;
2129;SDS011;1071;52.544;13.374;2024-03-06T03:56:35;18.20;;;14.90;;
2129;SDS011;1071;52.544;13.374;2024-03-06T03:59:02;18.58;;;16.63;;
2129;SDS011;1071;52.544;13.374;2024-03-06T04:01:30;16.40;;;14.70;;
2129;SDS011;1071;52.544;13.374;2024-03-06T04:03:58;16.02;;;14.32;;
2129;SDS011;1071;52.544;13.374;2024-03-06T04:06:25;18.50;;;15.23;;
2129;SDS011;1071;52.544;13.374;2024-03-06T04:08:52;16.90;;;15.13;;
2129;SDS011;1071;52.544;13.374;2024-03-06T04:11:19;17.83;;;15.18;;
2129;SDS011;1071;52.544;13.374;2024-03-06T04:13:46;16.67;;;14.65;;
2129;SDS011;1071;52.544;13.374;2024-03-06T04:16:15;19.90;;;15.45;;
2129;SDS011;1071;52.544;13.374;2024-03-06T04:18:44;17.20;;;15.07;;
2129;SDS011;1071;52.544;13.374;2024-03-06T04:21:12;16.23;;;14.38;;
2129;SDS011;1071;52.544;13.374;2024-03-06T04:23:40;17.50;;;14.35;;
2129;SDS011;1071;52.544;13.374;2024-03-06T04:26:08;17.35;;;15.20;;
2129;SDS011;1071;52.544;13.374;2024-03-06T04:28:35;17.33;;;15.48;;
2129;SDS011;1071;52.544;13.374;2024-03-06T04:31:04;17.42;;;15.55;;
2129;SDS011;1071;52.544;13.374;2024-03-06T04:33:38;16.65;;;14.95;;
2129;SDS011;1071;52.544;13.374;2024-03-06T04:36:07;20.02;;;15.40;;
2129;SDS011;1071;52.544;13.374;2024-03-06T04:38:36;18.40;;;15.45;;
2129;SDS011;1071;52.544;13.374;2024-03-06T04:41:05;23.10;;;15.45;;
2129;SDS011;1071;52.544;13.374;2024-03-06T04:43:34;20.55;;;16.77;;
2129;SDS011;1071;52.544;13.374;2024-03-06T04:46:04;22.45;;;18.48;;
2129;SDS011;1071;52.544;13.374;2024-03-06T04:48:31;27.42;;;19.73;;
2129;SDS011;1071;52.544;13.374;2024-03-06T04:50:58;25.42;;;18.42;;
2129;SDS011;1071;52.544;13.374;2024-03-06T04:53:28;20.63;;;17.15;;
2129;SDS011;1071;52.544;13.374;2024-03-06T04:56:16;24.00;;;16.80;;
2129;SDS011;1071;52.544;13.374;2024-03-06T04:58:47;25.48;;;17.88;;
2129;SDS011;1071;52.544;13.374;2024-03-06T05:01:14;25.80;;;19.63;;
2129;SDS011;1071;52.544;13.374;2024-03-06T05:03:41;30.70;;;20.73;;
2129;SDS011;1071;52.544;13.374;2024-03-06T05:06:08;26.40;;;20.45;;
2129;SDS011;1071;52.544;13.374;2024-03-06T05:08:35;23.60;;;18.00;;
2129;SDS011;1071;52.544;13.374;2024-03-06T05:11:03;21.45;;;17.92;;
2129;SDS011;1071;52.544;13.374;2024-03-06T05:13:32;23.35;;;19.02;;
2129;SDS011;1071;52.544;13.374;2024-03-06T05:15:59;30.17;;;19.00;;
2129;SDS011;1071;52.544;13.374;2024-03-06T05:18:26;23.10;;;19.90;;
2129;SDS011;1071;52.544;13.374;2024-03-06T05:20:53;30.10;;;20.95;;
2129;SDS011;1071;52.544;13.374;2024-03-06T05:23:20;25.00;;;18.23;;
2129;SDS011;1071;52.544;13.374;2024-03-06T05:25:48;20.38;;;18.13;;
2129;SDS011;1071;52.544;13.374;2024-03-06T05:28:15;22.38;;;16.30;;
2129;SDS011;1071;52.544;13.374;2024-03-06T05:30:43;21.38;;;16.85;;
2129;SDS011;1071;52.544;13.374;2024-03-06T05:33:11;19.90;;;15.55;;
2129;SDS011;1071;52.544;13.374;2024-03-06T05:35:38;20.00;;;16.00;;
2129;SDS011;1071;52.544;13.374;2024-03-06T05:38:05;20.02;;;16.02;;
2129;SDS011;1071;52.544;13.374;2024-03-06T05:40:34;23.05;;;17.55;;
2129;SDS011;1071;52.544;13.374;2024-03-06T05:43:02;20.45;;;17.75;;
2129;SDS011;1071;52.544;13.374;2024-03-06T05:45:30;18.98;;;16.77;;
2129;SDS011;1071;52.544;13.374;2024-03-06T05:47:59;20.73;;;15.38;;
2129;SDS011;1071;52.544;13.374;2024-03-06T05:50:25;25.23;;;17.92;;
2129;SDS011;1071;52.544;13.374;2024-03-06T05:52:52;23.45;;;15.95;;
2129;SDS011;1071;52.544;13.374;2024-03-06T05:55:21;20.95;;;18.70;;
2129;SDS011;1071;52.544;13.374;2024-03-06T05:57:48;19.25;;;17.30;;
2129;SDS011;1071;52.544;13.374;2024-03-06T06:00:16;24.00;;;16.02;;
2129;SDS011;1071;52.544;13.374;2024-03-06T06:02:43;23.65;;;19.40;;
2129;SDS011;1071;52.544;13.374;2024-03-06T06:05:12;21.88;;;17.52;;
2129;SDS011;1071;52.544;13.374;2024-03-06T06:07:40;18.65;;;16.20;;
2129;SDS011;1071;52.544;13.374;2024-03-06T06:10:07;17.77;;;15.23;;
2129;SDS011;1071;52.544;13.374;2024-03-06T06:12:35;20.00;;;17.23;;
2129;SDS011;1071;52.544;13.374;2024-03-06T06:15:02;19.52;;;16.30;;
2129;SDS011;1071;52.544;13.374;2024-03-06T06:17:30;20.85;;;16.10;;
2129;SDS011;1071;52.544;13.374;2024-03-06T06:19:57;25.25;;;16.85;;
2129;SDS011;1071;52.544;13.374;2024-03-06T06:22:28;20.42;;;18.17;;
2129;SDS011;1071;52.544;13.374;2024-03-06T06:24:55;25.20;;;19.13;;
2129;SDS011;1071;52.544;13.374;2024-03-06T06:27:22;22.83;;;18.65;;
2129;SDS011;1071;52.544;13.374;2024-03-06T06:29:50;23.25;;;16.08;;
2129;SDS011;1071;52.544;13.374;2024-03-06T06:32:20;24.35;;;18.75;;
2129;SDS011;1071;52.544;13.374;2024-03-06T06:34:47;22.25;;;19.02;;
2129;SDS011;1071;52.544;13.374;2024-03-06T06:37:16;23.30;;;19.10;;
2129;SDS011;1071;52.544;13.374;2024-03-06T06:39:46;23.70;;;17.70;;
2129;SDS011;1071;52.544;13.374;2024-03-06T06:42:13;21.80;;;18.50;;
2129;SDS011;1071;52.544;13.374;2024-03-06T06:44:40;23.13;;;19.73;;
2129;SDS011;1071;52.544;13.374;2024-03-06T06:47:07;24.33;;;18.10;;
2129;SDS011;1071;52.544;13.374;2024-03-06T06:49:41;23.75;;;18.35;;
2129;SDS011;1071;52.544;13.374;2024-03-06T06:52:13;22.95;;;16.48;;
2129;SDS011;1071;52.544;13.374;2024-03-06T06:54:41;18.75;;;16.20;;
2129;SDS011;1071;52.544;13.374;2024-03-06T06:57:10;27.92;;;17.20;;
2129;SDS011;1071;52.544;13.374;2024-03-06T06:59:36;21.17;;;17.33;;
2129;SDS011;1071;52.544;13.374;2024-03-06T07:02:03;24.23;;;17.77;;
2129;SDS011;1071;52.544;13.374;2024-03-06T07:04:31;22.50;;;17.08;;
2129;SDS011;1071;52.544;13.374;2024-03-06T07:06:58;21.17;;;17.65;;
2129;SDS011;1071;52.544;13.374;2024-03-06T07:09:25;20.88;;;16.65;;
2129;SDS011;1071;52.544;13.374;2024-03-06T07:11:54;20.48;;;16.35;;
2129;SDS011;1071;52.544;13.374;2024-03-06T07:14:23;24.55;;;16.98;;
2129;SDS011;1071;52.544;13.374;2024-03-06T07:16:50;19.65;;;17.58;;
2129;SDS011;1071;52.544;13.374;2024-03-06T07:19:17;21.52;;;18.25;;
2129;SDS011;1071;52.544;13.374;2024-03-06T07:21:45;19.83;;;16.42;;
2129;SDS011;1071;52.544;13.374;2024-03-06T07:24:15;21.05;;;17.45;;
2129;SDS011;1071;52.544;13.374;2024-03-06T07:26:42;17.35;;;15.35;;
2129;SDS011;1071;52.544;13.374;2024-03-06T07:29:09;19.05;;;16.40;;
2129;SDS011;1071;52.544;13.374;2024-03-06T07:31:41;21.17;;;16.73;;
2129;SDS011;1071;52.544;13.374;2024-03-06T07:34:09;22.23;;;17.25;;
2129;SDS011;1071;52.544;13.374;2024-03-06T07:36:36;18.40;;;16.58;;
2129;SDS011;1071;52.544;13.374;2024-03-06T07:39:03;19.58;;;16.58;;
2129;SDS011;1071;52.544;13.374;2024-03-06T07:41:30;22.30;;;17.05;;
2129;SDS011;1071;52.544;13.374;2024-03-06T07:43:59;18.15;;;15.18;;
2129;SDS011;1071;52.544;13.374;2024-03-06T07:46:26;17.45;;;15.50;;
2129;SDS011;1071;52.544;13.374;2024-03-06T07:48:54;19.13;;;16.27;;
2129;SDS011;1071;52.544;13.374;2024-03-06T07:51:21;15.82;;;13.88;;
2129;SDS011;1071;52.544;13.374;2024-03-06T07:53:48;16.75;;;14.95;;
2129;SDS011;1071;52.544;13.374;2024-03-06T07:56:15;14.77;;;13.23;;
2129;SDS011;1071;52.544;13.374;2024-03-06T07:58:42;16.67;;;14.10;;
2129;SDS011;1071;52.544;13.374;2024-03-06T08:01:12;15.10;;;13.30;;
2129;SDS011;1071;52.544;13.374;2024-03-06T08:03:39;18.33;;;15.38;;
2129;SDS011;1071;52.544;13.374;2024-03-06T08:06:09;20.02;;;15.00;;
2129;SDS011;1071;52.544;13.374;2024-03-06T08:08:36;15.45;;;13.60;;
2129;SDS011;1071;52.544;13.374;2024-03-06T08:11:06;19.35;;;15.40;;
2129;SDS011;1071;52.544;13.374;2024-03-06T08:13:35;15.77;;;14.25;;
2129;SDS011;1071;52.544;13.374;2024-03-06T08:16:02;18.85;;;13.20;;
2129;SDS011;1071;52.544;13.374;2024-03-06T08:18:30;15.38;;;13.68;;
2129;SDS011;1071;52.544;13.374;2024-03-06T08:20:59;15.23;;;13.30;;
2129;SDS011;1071;52.544;13.374;2024-03-06T08:23:28;16.02;;;14.25;;
2129;SDS011;1071;52.544;13.374;2024-03-06T08:25:55;15.25;;;13.68;;
2129;SDS011;1071;52.544;13.374;2024-03-06T08:28:22;16.02;;;14.38;;
2129;SDS011;1071;52.544;13.374;2024-03-06T08:30:50;14.18;;;12.18;;
2129;SDS011;1071;52.544;13.374;2024-03-06T08:33:17;14.82;;;13.13;;
2129;SDS011;1071;52.544;13.374;2024-03-06T08:35:46;17.10;;;13.73;;
2129;SDS011;1071;52.544;13.374;2024-03-06T08:38:13;14.73;;;13.23;;
2129;SDS011;1071;52.544;13.374;2024-03-06T08:40:41;14.73;;;12.63;;
2129;SDS011;1071;52.544;13.374;2024-03-06T08:43:10;15.15;;;13.55;;
2129;SDS011;1071;52.544;13.374;2024-03-06T08:45:37;14.65;;;13.02;;
2129;SDS011;1071;52.544;13.374;2024-03-06T08:48:05;14.82;;;12.02;;
2129;SDS011;1071;52.544;13.374;2024-03-06T08:50:36;13.05;;;11.45;;
2129;SDS011;1071;52.544;13.374;2024-03-06T08:53:03;16.38;;;11.30;;
2129;SDS011;1071;52.544;13.374;2024-03-06T08:55:30;13.93;;;12.00;;
2129;SDS011;1071;52.544;13.374;2024-03-06T08:57:59;12.85;;;11.45;;
2129;SDS011;1071;52.544;13.374;2024-03-06T09:00:26;13.80;;;11.05;;
2129;SDS011;1071;52.544;13.374;2024-03-06T09:02:53;12.30;;;10.80;;
2129;SDS011;1071;52.544;13.374;2024-03-06T09:05:20;12.65;;;10.77;;
2129;SDS011;1071;52.544;13.374;2024-03-06T09:07:47;12.35;;;10.95;;
2129;SDS011;1071;52.544;13.374;2024-03-06T09:10:14;14.45;;;12.45;;
2129;SDS011;1071;52.544;13.374;2024-03-06T09:12:43;12.45;;;10.63;;
2129;SDS011;1071;52.544;13.374;2024-03-06T09:15:13;13.75;;;12.35;;
2129;SDS011;1071;52.544;13.374;2024-03-06T09:17:41;13.82;;;12.45;;
2129;SDS011;1071;52.544;13.374;2024-03-06T09:20:10;12.85;;;11.55;;
2129;SDS011;1071;52.544;13.374;2024-03-06T09:22:37;11.50;;;10.32;;
2129;SDS011;1071;52.544;13.374;2024-03-06T09:25:04;13.35;;;12.05;;
2129;SDS011;1071;52.544;13.374;2024-03-06T09:27:32;13.77;;;10.63;;
2129;SDS011;1071;52.544;13.374;2024-03-06T09:29:58;12.68;;;11.10;;
2129;SDS011;1071;52.544;13.374;2024-03-06T09:32:27;10.70;;;9.60;;
2129;SDS011;1071;52.544;13.374;2024-03-06T09:34:54;9.38;;;8.48;;
2129;SDS011;1071;52.544;13.374;2024-03-06T09:37:21;9.68;;;8.73;;
2129;SDS011;1071;52.544;13.374;2024-03-06T09:39:48;10.90;;;9.77;;
2129;SDS011;1071;52.544;13.374;2024-03-06T09:42:16;10.27;;;9.20;;
2129;SDS011;1071;52.544;13.374;2024-03-06T09:44:43;11.10;;;9.48;;
2129;SDS011;1071;52.544;13.374;2024-03-06T09:47:13;14.05;;;10.13;;
2129;SDS011;1071;52.544;13.374;2024-03-06T09:49:42;12.35;;;11.02;;
2129;SDS011;1071;52.544;13.374;2024-03-06T09:52:10;11.43;;;10.23;;
2129;SDS011;1071;52.544;13.374;2024-03-06T09:54:37;12.27;;;11.00;;
2129;SDS011;1071;52.544;13.374;2024-03-06T09:57:05;11.90;;;10.20;;
2129;SDS011;1071;52.544;13.374;2024-03-06T09:59:32;10.73;;;9.73;;
2129;SDS011;1071;52.544;13.374;2024-03-06T10:02:00;13.85;;;11.13;;
2129;SDS011;1071;52.544;13.374;2024-03-06T10:04:28;13.93;;;10.95;;
2129;SDS011;1071;52.544;13.374;2024-03-06T10:07:00;12.57;;;10.43;;
2129;SDS011;1071;52.544;13.374;2024-03-06T10:09:27;11.73;;;10.52;;
2129;SDS011;1071;52.544;13.374;2024-03-06T10:11:56;13.35;;;11.10;;
2129;SDS011;1071;52.544;13.374;2024-03-06T10:14:23;13.38;;;11.95;;
2129;SDS011;1071;52.544;13.374;2024-03-06T10:16:51;11.35;;;10.25;;
2129;SDS011;1071;52.544;13.374;2024-03-06T10:19:23;10.90;;;9.60;;
2129;SDS011;1071;52.544;13.374;2024-03-06T10:21:52;11.63;;;10.45;;
2129;SDS011;1071;52.544;13.374;2024-03-06T10:24:22;13.68;;;12.27;;
2129;SDS011;1071;52.544;13.374;2024-03-06T10:26:50;10.50;;;9.45;;
2129;SDS011;1071;52.544;13.374;2024-03-06T10:29:19;13.27;;;10.90;;
2129;SDS011;1071;52.544;13.374;2024-03-06T10:31:49;11.10;;;9.77;;
2129;SDS011;1071;52.544;13.374;2024-03-06T10:34:19;10.73;;;9.65;;
2129;SDS011;1071;52.544;13.374;2024-03-06T10:36:52;9.00;;;8.20;;
2129;SDS011;1071;52.544;13.374;2024-03-06T10:39:24;10.30;;;9.23;;
2129;SDS011;1071;52.544;13.374;2024-03-06T10:41:52;11.45;;;9.18;;
2129;SDS011;1071;52.544;13.374;2024-03-06T10:44:20;11.88;;;9.25;;
2129;SDS011;1071;52.544;13.374;2024-03-06T10:46:51;12.35;;;9.65;;
2129;SDS011;1071;52.544;13.374;2024-03-06T10:49:25;10.98;;;9.88;;
2129;SDS011;1071;52.544;13.374;2024-03-06T10:51:53;10.15;;;9.25;;
2129;SDS011;1071;52.544;13.374;2024-03-06T10:54:25;11.93;;;10.80;;
2129;SDS011;1071;52.544;13.374;2024-03-06T10:56:57;10.23;;;9.23;;
2129;SDS011;1071;52.544;13.374;2024-03-06T10:59:27;10.95;;;9.80;;
2129;SDS011;1071;52.544;13.374;2024-03-06T11:01:55;10.98;;;9.90;;
2129;SDS011;1071;52.544;13.374;2024-03-06T11:04:27;11.02;;;9.93;;
2129;SDS011;1071;52.544;13.374;2024-03-06T11:06:58;9.90;;;8.90;;
2129;SDS011;1071;52.544;13.374;2024-03-06T11:09:27;10.95;;;8.73;;
2129;SDS011;1071;52.544;13.374;2024-03-06T11:11:54;7.68;;;6.85;;
2129;SDS011;1071;52.544;13.374;2024-03-06T11:14:21;9.15;;;8.25;;
2129;SDS011;1071;52.544;13.374;2024-03-06T11:16:57;10.98;;;9.32;;
2129;SDS011;1071;52.544;13.374;2024-03-06T11:19:26;12.45;;;11.25;;
2129;SDS011;1071;52.544;13.374;2024-03-06T11:21:55;12.48;;;11.18;;
2129;SDS011;1071;52.544;13.374;2024-03-06T11:24:23;12.38;;;11.07;;
2129;SDS011;1071;52.544;13.374;2024-03-06T11:26:59;11.15;;;10.20;;
2129;SDS011;1071;52.544;13.374;2024-03-06T11:29:27;11.98;;;10.77;;
2129;SDS011;1071;52.544;13.374;2024-03-06T11:31:56;13.80;;;11.45;;
2129;SDS011;1071;52.544;13.374;2024-03-06T11:34:28;17.67;;;14.13;;
2129;SDS011;1071;52.544;13.374;2024-03-06T11:36:56;16.67;;;14.98;;
2129;SDS011;1071;52.544;13.374;2024-03-06T11:39:23;15.95;;;14.25;;
2129;SDS011;1071;52.544;13.374;2024-03-06T11:41:56;15.52;;;13.98;;
2129;SDS011;1071;52.544;13.374;2024-03-06T11:44:23;16.17;;;14.50;;
2129;SDS011;1071;52.544;13.374;2024-03-06T11:46:56;14.10;;;12.65;;
2129;SDS011;1071;52.544;13.374;2024-03-06T11:49:25;16.42;;;14.77;;
2129;SDS011;1071;52.544;13.374;2024-03-06T11:51:55;17.17;;;15.20;;
2129;SDS011;1071;52.544;13.374;2024-03-06T11:54:23;17.20;;;15.63;;
2129;SDS011;1071;52.544;13.374;2024-03-06T11:56:52;17.27;;;15.45;;
2129;SDS011;1071;52.544;13.374;2024-03-06T11:59:24;15.75;;;14.15;;
2129;SDS011;1071;52.544;13.374;2024-03-06T12:01:52;16.30;;;14.57;;
2129;SDS011;1071;52.544;13.374;2024-03-06T12:04:20;18.73;;;16.70;;
2129;SDS011;1071;52.544;13.374;2024-03-06T12:06:49;15.98;;;14.57;;
2129;SDS011;1071;52.544;13.374;2024-03-06T12:09:16;15.80;;;14.10;;
2129;SDS011;1071;52.544;13.374;2024-03-06T12:11:44;13.10;;;11.95;;
2129;SDS011;1071;52.544;13.374;2024-03-06T12:14:14;14.75;;;13.30;;
2129;SDS011;1071;52.544;13.374;2024-03-06T12:16:53;12.45;;;11.25;;
2129;SDS011;1071;52.544;13.374;2024-03-06T12:19:21;15.70;;;12.30;;
2129;SDS011;1071;52.544;13.374;2024-03-06T12:21:48;11.90;;;10.70;;
2129;SDS011;1071;52.544;13.374;2024-03-06T12:24:16;11.52;;;10.32;;
2129;SDS011;1071;52.544;13.374;2024-03-06T12:26:44;11.25;;;10.15;;
2129;SDS011;1071;52.544;13.374;2024-03-06T12:29:17;11.80;;;10.73;;
2129;SDS011;1071;52.544;13.374;2024-03-06T12:31:46;11.65;;;10.45;;
2129;SDS011;1071;52.544;13.374;2024-03-06T12:34:14;11.73;;;10.55;;
2129;SDS011;1071;52.544;13.374;2024-03-06T12:36:42;15.15;;;11.40;;
2129;SDS011;1071;52.544;13.374;2024-03-06T12:39:14;12.75;;;11.45;;
2129;SDS011;1071;52.544;13.374;2024-03-06T12:41:48;14.25;;;10.38;;
2129;SDS011;1071;52.544;13.374;2024-03-06T12:44:15;8.90;;;8.20;;
2129;SDS011;1071;52.544;13.374;2024-03-06T12:46:42;11.73;;;10.52;;
2129;SDS011;1071;52.544;13.374;2024-03-06T12:49:11;10.25;;;9.35;;
2129;SDS011;1071;52.544;13.374;2024-03-06T12:51:41;12.30;;;11.10;;
2129;SDS011;1071;52.544;13.374;2024-03-06T12:54:09;13.07;;;11.70;;
2129;SDS011;1071;52.544;13.374;2024-03-06T12:56:36;13.75;;;12.38;;
2129;SDS011;1071;52.544;13.374;2024-03-06T12:59:03;13.48;;;12.07;;
2129;SDS011;1071;52.544;13.374;2024-03-06T13:01:30;13.95;;;12.75;;
2129;SDS011;1071;52.544;13.374;2024-03-06T13:03:57;11.95;;;10.88;;
2129;SDS011;1071;52.544;13.374;2024-03-06T13:06:26;11.43;;;10.32;;
2129;SDS011;1071;52.544;13.374;2024-03-06T13:08:54;12.27;;;11.10;;
2129;SDS011;1071;52.544;13.374;2024-03-06T13:11:21;14.52;;;13.02;;
2129;SDS011;1071;52.544;13.374;2024-03-06T13:13:48;15.30;;;13.27;;
2129;SDS011;1071;52.544;13.374;2024-03-06T13:16:15;14.35;;;12.32;;
2129;SDS011;1071;52.544;13.374;2024-03-06T13:18:42;17.05;;;12.40;;
2129;SDS011;1071;52.544;13.374;2024-03-06T13:21:09;18.35;;;14.00;;
2129;SDS011;1071;52.544;13.374;2024-03-06T13:23:38;17.20;;;15.50;;
2129;SDS011;1071;52.544;13.374;2024-03-06T13:26:05;17.40;;;15.52;;
2129;SDS011;1071;52.544;13.374;2024-03-06T13:28:32;19.38;;;16.23;;
2129;SDS011;1071;52.544;13.374;2024-03-06T13:30:59;18.17;;;15.02;;
2129;SDS011;1071;52.544;13.374;2024-03-06T13:33:26;19.85;;;14.60;;
2129;SDS011;1071;52.544;13.374;2024-03-06T13:35:53;15.77;;;13.50;;
2129;SDS011;1071;52.544;13.374;2024-03-06T13:38:28;23.77;;;16.17;;
2129;SDS011;1071;52.544;13.374;2024-03-06T13:40:58;18.58;;;15.13;;
2129;SDS011;1071;52.544;13.374;2024-03-06T13:43:27;19.65;;;14.68;;
2129;SDS011;1071;52.544;13.374;2024-03-06T13:45:54;18.00;;;13.88;;
2129;SDS011;1071;52.544;13.374;2024-03-06T13:48:21;17.77;;;13.57;;
2129;SDS011;1071;52.544;13.374;2024-03-06T13:50:48;19.77;;;14.80;;
2129;SDS011;1071;52.544;13.374;2024-03-06T13:53:15;19.33;;;14.68;;
2129;SDS011;1071;52.544;13.374;2024-03-06T13:55:43;19.58;;;15.70;;
2129;SDS011;1071;52.544;13.374;2024-03-06T13:58:11;18.58;;;15.32;;
2129;SDS011;1071;52.544;13.374;2024-03-06T14:00:38;19.77;;;15.18;;
2129;SDS011;1071;52.544;13.374;2024-03-06T14:03:05;17.85;;;13.23;;
2129;SDS011;1071;52.544;13.374;2024-03-06T14:05:32;19.75;;;13.20;;
2129;SDS011;1071;52.544;13.374;2024-03-06T14:07:59;17.63;;;12.60;;
2129;SDS011;1071;52.544;13.374;2024-03-06T14:10:26;20.67;;;12.90;;
2129;SDS011;1071;52.544;13.374;2024-03-06T14:12:55;17.77;;;13.25;;
2129;SDS011;1071;52.544;13.374;2024-03-06T14:15:24;15.30;;;13.45;;
2129;SDS011;1071;52.544;13.374;2024-03-06T14:17:57;16.48;;;13.27;;
2129;SDS011;1071;52.544;13.374;2024-03-06T14:20:25;19.63;;;16.00;;
2129;SDS011;1071;52.544;13.374;2024-03-06T14:22:52;19.02;;;13.98;;
2129;SDS011;1071;52.544;13.374;2024-03-06T14:25:19;17.27;;;12.73;;
2129;SDS011;1071;52.544;13.374;2024-03-06T14:27:46;23.40;;;15.90;;
2129;SDS011;1071;52.544;13.374;2024-03-06T14:30:13;23.65;;;16.70;;
2129;SDS011;1071;52.544;13.374;2024-03-06T14:32:45;20.98;;;15.60;;
2129;SDS011;1071;52.544;13.374;2024-03-06T14:35:12;22.33;;;16.20;;
2129;SDS011;1071;52.544;13.374;2024-03-06T14:37:39;26.75;;;17.85;;
2129;SDS011;1071;52.544;13.374;2024-03-06T14:40:07;25.98;;;19.00;;
2129;SDS011;1071;52.544;13.374;2024-03-06T14:42:35;31.05;;;20.65;;